sensor_id;sensor_type;location;lat;lon;timestamp;temperature;humidity
1538;DHT22;12022;52.266;10.522;2023-02-25T00:10:06;5.50;99.90
1538;DHT22;12022;52.266;10.522;2023-02-25T00:40:09;5.50;99.90
1538;DHT22;12022;52.266;10.522;2023-02-25T00:57:12;5.50;99.90
1538;DHT22;12022;52.266;10.522;2023-02-25T01:48:39;5.40;99.90
1538;DHT22;12022;52.266;10.522;2023-02-25T02:14:57;5.10;99.90
1538;DHT22;12022;52.266;10.522;2023-02-25T04:36:37;4.40;99.90
1538;DHT22;12022;52.266;10.522;2023-02-25T08:16:41;4.90;99.90
1538;DHT22;12022;52.266;10.522;2023-02-25T08:31:14;5.20;99.90
1538;DHT22;12022;52.266;10.522;2023-02-25T08:33:44;5.20;99.90
1538;DHT22;12022;52.266;10.522;2023-02-25T08:36:18;5.30;99.90
1538;DHT22;12022;52.266;10.522;2023-02-25T08:38:46;5.50;99.90
1538;DHT22;12022;52.266;10.522;2023-02-25T08:41:13;5.50;99.90
1538;DHT22;12022;52.266;10.522;2023-02-25T08:43:40;5.50;99.90
1538;DHT22;12022;52.266;10.522;2023-02-25T08:46:08;5.50;99.90
1538;DHT22;12022;52.266;10.522;2023-02-25T08:48:35;5.50;99.90
1538;DHT22;12022;52.266;10.522;2023-02-25T08:51:04;5.50;99.90
1538;DHT22;12022;52.266;10.522;2023-02-25T08:53:38;5.50;99.90
1538;DHT22;12022;52.266;10.522;2023-02-25T08:56:07;5.50;99.90
1538;DHT22;12022;52.266;10.522;2023-02-25T08:58:35;5.60;99.90
1538;DHT22;12022;52.266;10.522;2023-02-25T09:01:10;5.70;99.90
1538;DHT22;12022;52.266;10.522;2023-02-25T09:03:42;5.70;99.90
1538;DHT22;12022;52.266;10.522;2023-02-25T09:06:24;5.80;99.90
1538;DHT22;12022;52.266;10.522;2023-02-25T09:08:52;5.80;99.90
1538;DHT22;12022;52.266;10.522;2023-02-25T09:11:23;5.90;99.90
1538;DHT22;12022;52.266;10.522;2023-02-25T09:13:53;6.00;99.90
1538;DHT22;12022;52.266;10.522;2023-02-25T09:16:20;6.10;99.90
1538;DHT22;12022;52.266;10.522;2023-02-25T09:18:49;6.20;99.90
1538;DHT22;12022;52.266;10.522;2023-02-25T09:21:17;6.20;99.90
1538;DHT22;12022;52.266;10.522;2023-02-25T09:23:46;6.10;99.90
1538;DHT22;12022;52.266;10.522;2023-02-25T09:26:13;6.20;99.90
1538;DHT22;12022;52.266;10.522;2023-02-25T09:28:40;6.20;99.90
1538;DHT22;12022;52.266;10.522;2023-02-25T09:31:08;6.20;99.90
1538;DHT22;12022;52.266;10.522;2023-02-25T09:33:36;6.20;99.90
1538;DHT22;12022;52.266;10.522;2023-02-25T09:38:31;6.30;99.90
1538;DHT22;12022;52.266;10.522;2023-02-25T09:40:58;6.30;99.90
1538;DHT22;12022;52.266;10.522;2023-02-25T09:43:43;6.30;99.90
1538;DHT22;12022;52.266;10.522;2023-02-25T09:46:15;6.30;99.90
1538;DHT22;12022;52.266;10.522;2023-02-25T09:48:53;6.20;99.90
1538;DHT22;12022;52.266;10.522;2023-02-25T09:51:24;6.20;99.90
1538;DHT22;12022;52.266;10.522;2023-02-25T09:54:00;6.30;99.90
1538;DHT22;12022;52.266;10.522;2023-02-25T09:56:34;6.30;99.90
1538;DHT22;12022;52.266;10.522;2023-02-25T09:59:02;6.30;99.90
1538;DHT22;12022;52.266;10.522;2023-02-25T10:01:40;6.30;99.90
1538;DHT22;12022;52.266;10.522;2023-02-25T10:04:21;6.20;99.90
1538;DHT22;12022;52.266;10.522;2023-02-25T10:06:50;6.20;99.90
1538;DHT22;12022;52.266;10.522;2023-02-25T10:19:04;5.80;99.90
1538;DHT22;12022;52.266;10.522;2023-02-25T10:21:44;5.70;99.90
1538;DHT22;12022;52.266;10.522;2023-02-25T10:24:33;5.70;99.90
1538;DHT22;12022;52.266;10.522;2023-02-25T10:29:49;5.70;99.90
1538;DHT22;12022;52.266;10.522;2023-02-25T10:32:33;5.80;99.90
1538;DHT22;12022;52.266;10.522;2023-02-25T10:35:13;5.90;99.90
1538;DHT22;12022;52.266;10.522;2023-02-25T10:37:41;6.20;99.90
1538;DHT22;12022;52.266;10.522;2023-02-25T10:40:20;6.30;99.90
1538;DHT22;12022;52.266;10.522;2023-02-25T10:43:24;6.00;99.90
1538;DHT22;12022;52.266;10.522;2023-02-25T10:46:04;6.00;99.90
1538;DHT22;12022;52.266;10.522;2023-02-25T10:48:35;6.10;99.90
1538;DHT22;12022;52.266;10.522;2023-02-25T10:51:07;6.20;99.90
1538;DHT22;12022;52.266;10.522;2023-02-25T10:54:04;6.20;99.90
1538;DHT22;12022;52.266;10.522;2023-02-25T10:56:43;6.30;99.90
1538;DHT22;12022;52.266;10.522;2023-02-25T10:59:39;6.30;99.90
1538;DHT22;12022;52.266;10.522;2023-02-25T11:02:24;6.10;99.90
1538;DHT22;12022;52.266;10.522;2023-02-25T11:04:52;5.90;99.90
1538;DHT22;12022;52.266;10.522;2023-02-25T11:07:39;5.90;99.90
1538;DHT22;12022;52.266;10.522;2023-02-25T11:12:44;5.90;99.90
1538;DHT22;12022;52.266;10.522;2023-02-25T11:15:35;6.00;99.90
1538;DHT22;12022;52.266;10.522;2023-02-25T11:21:15;5.80;99.90
1538;DHT22;12022;52.266;10.522;2023-02-25T11:23:53;5.60;99.90
1538;DHT22;12022;52.266;10.522;2023-02-25T11:26:30;5.40;99.90
1538;DHT22;12022;52.266;10.522;2023-02-25T11:29:08;5.30;99.90
1538;DHT22;12022;52.266;10.522;2023-02-25T11:31:38;5.40;99.90
1538;DHT22;12022;52.266;10.522;2023-02-25T11:34:23;5.60;99.90
1538;DHT22;12022;52.266;10.522;2023-02-25T11:36:50;5.40;99.90
1538;DHT22;12022;52.266;10.522;2023-02-25T11:39:22;5.40;99.90
1538;DHT22;12022;52.266;10.522;2023-02-25T11:41:52;5.40;99.90
1538;DHT22;12022;52.266;10.522;2023-02-25T11:44:30;5.50;99.90
1538;DHT22;12022;52.266;10.522;2023-02-25T11:50:25;5.80;99.90
1538;DHT22;12022;52.266;10.522;2023-02-25T11:53:30;5.80;99.90
1538;DHT22;12022;52.266;10.522;2023-02-25T11:56:20;5.80;99.90
1538;DHT22;12022;52.266;10.522;2023-02-25T12:04:52;6.10;99.90
1538;DHT22;12022;52.266;10.522;2023-02-25T12:19:31;6.60;99.90
1538;DHT22;12022;52.266;10.522;2023-02-25T12:22:12;6.40;99.90
1538;DHT22;12022;52.266;10.522;2023-02-25T12:37:52;5.70;99.90
1538;DHT22;12022;52.266;10.522;2023-02-25T12:46:05;5.70;99.90
1538;DHT22;12022;52.266;10.522;2023-02-25T13:07:21;3.50;99.90
1538;DHT22;12022;52.266;10.522;2023-02-25T13:51:28;2.90;99.90
1538;DHT22;12022;52.266;10.522;2023-02-25T13:57:23;2.50;99.90
1538;DHT22;12022;52.266;10.522;2023-02-25T14:15:27;2.50;99.90
1538;DHT22;12022;52.266;10.522;2023-02-25T14:38:40;2.80;99.90
1538;DHT22;12022;52.266;10.522;2023-02-25T14:41:19;2.80;99.90
1538;DHT22;12022;52.266;10.522;2023-02-25T16:16:57;3.30;99.90
1538;DHT22;12022;52.266;10.522;2023-02-25T17:56:36;2.60;99.90
1538;DHT22;12022;52.266;10.522;2023-02-25T18:29:37;2.60;99.90
1538;DHT22;12022;52.266;10.522;2023-02-25T18:32:16;2.60;99.90
1538;DHT22;12022;52.266;10.522;2023-02-25T21:45:34;1.30;99.90
1538;DHT22;12022;52.266;10.522;2023-02-25T21:48:03;1.30;99.90
1538;DHT22;12022;52.266;10.522;2023-02-25T22:31:29;1.20;99.90
1538;DHT22;12022;52.266;10.522;2023-02-25T23:35:20;0.90;99.90
